Sodus, Michigan
Current Conditions -  °F | °C
As of 1:53 AM on Monday 22 Dec 2014 (Local Time) from KBEH Reporting Station
Haze Haze  
Wind Chill: 20°   Ceiling: Unl
Heat Index: 29°   Visibility: 6mi
Dew Point: 25°   Wind: 9mph
Humidity: 85%   Direction: 140°SE
Pressure: 30.05"   Gusts: NA
Location:  42.04°N, 86.37°W
Report Text: KBEH 220653Z AUTO 14008KT 6SM BR CLR M02/M04 A3005 RMK AO2 SLP182 T10171039
Loading
Personal Weather Stations






























Interactive Weather Map New forecast layout! Learn more

10-Day Weather Forecast

Advertisements
Track Severe Weather on mobile